»·PEaware :: N221XG KYKM-KBFI

N221XG :: KYKM-KBFI

FLIGHT INFORMATION

Flight Status: Arrived
Operator: Privately registered:
United States
More flights under this callsign
Pilot: Ryan L. (9775)
Aircraft: PILATUS PC-12 EAGLE
(PC12)
More flights by this aircraft type
Origin: KYKM Yakima Air Term/Mcallister
United States
Destination: KBFI Boeing Field/King Co Intl
United States
More flights between these airports :: More routes between these airports
Route: +GROMO4 GROMO CHINS CHINS2
File this flight plan on PilotEdge
Remarks:
Altitude:
(Current/Filed)
12,000ft
Speed:
(Current/Filed)
260kts
Departed: 06-Jan-18 11:27 AM
Arrived: 06-Jan-18 12:06 PM
Distance/Time
Traveled:
92nm/0:39
Distance/Time
To Go:
Arrived

Flight Plot

Page will automatically refresh every two minutes.

Flight plan parsing failed; only flown route is shown


Map Options




Map Legend


Flown Route
Filed Route
Departure Airport
Arrival Airport
Navaid (VOR, NDB)
Fix

Horizontal Profiles

Position Reports

Time Latitude Longitude Heading Altitude Ground
Speed
06-Jan-18 11:11 46.572744 -120.553223 289 1103ft 0kts
06-Jan-18 11:12 46.572744 -120.553223 289 1103ft 0kts
06-Jan-18 11:13 46.572744 -120.553223 289 1103ft 0kts
06-Jan-18 11:14 46.572744 -120.553223 289 1103ft 0kts
06-Jan-18 11:15 46.572744 -120.553223 289 1103ft 0kts
06-Jan-18 11:16 46.572744 -120.553223 289 1103ft 0kts
06-Jan-18 11:17 46.572744 -120.553223 289 1103ft 0kts
06-Jan-18 11:18 46.572744 -120.553223 289 1103ft 0kts
06-Jan-18 11:19 46.572744 -120.553224 288 1103ft 0kts
06-Jan-18 11:20 46.572744 -120.553224 288 1103ft 0kts
06-Jan-18 11:21 46.572744 -120.553223 288 1103ft 0kts
06-Jan-18 11:22 46.572744 -120.553223 288 1103ft 0kts
06-Jan-18 11:23 46.572744 -120.553223 288 1103ft 0kts
06-Jan-18 11:24 46.572753 -120.553265 287 1103ft 2kts
06-Jan-18 11:25 46.572756 -120.553509 233 1103ft 5kts
06-Jan-18 11:26 46.571565 -120.550952 109 1103ft 11kts
06-Jan-18 11:27 46.570485 -120.546587 109 1103ft 14kts
06-Jan-18 11:28 46.569025 -120.540797 109 1103ft 14kts
06-Jan-18 11:29 46.567647 -120.535415 109 1103ft 15kts
06-Jan-18 11:30 46.566452 -120.531469 182 1103ft 0kts
06-Jan-18 11:31 46.566452 -120.531469 182 1103ft 0kts
06-Jan-18 11:32 46.565597 -120.531597 235 1103ft 7kts
06-Jan-18 11:33 46.571755 -120.553295 296 1330ft 108kts
06-Jan-18 11:34 46.571427 -120.601276 262 3080ft 125kts
06-Jan-18 11:35 46.569593 -120.653256 269 4889ft 138kts
06-Jan-18 11:36 46.584944 -120.706463 320 6697ft 153kts
06-Jan-18 11:37 46.622183 -120.745317 323 8294ft 180kts
06-Jan-18 11:38 46.661604 -120.791782 323 9944ft 189kts
06-Jan-18 11:39 46.704532 -120.829366 334 11464ft 196kts
06-Jan-18 11:40 46.758969 -120.861130 332 11968ft 239kts
06-Jan-18 11:41 46.807102 -120.929978 304 11809ft 256kts
06-Jan-18 11:42 46.848518 -121.013781 304 11709ft 253kts
06-Jan-18 11:43 46.888701 -121.096332 304 11648ft 250kts
06-Jan-18 11:44 46.928821 -121.179523 305 11033ft 249kts
06-Jan-18 11:45 46.968304 -121.260508 303 10560ft 245kts
06-Jan-18 11:46 47.007265 -121.342073 303 10096ft 245kts
06-Jan-18 11:47 47.046275 -121.423510 303 9977ft 243kts
06-Jan-18 11:48 47.084918 -121.504408 303 10011ft 244kts
06-Jan-18 11:49 47.123537 -121.584832 303 10007ft 245kts
06-Jan-18 11:50 47.161777 -121.665391 302 10004ft 245kts
06-Jan-18 11:51 47.200117 -121.747189 302 10004ft 246kts
06-Jan-18 11:52 47.233549 -121.833879 297 10007ft 245kts
06-Jan-18 11:53 47.265980 -121.921615 297 10009ft 245kts
06-Jan-18 11:54 47.298200 -122.008659 297 10006ft 245kts
06-Jan-18 11:55 47.331567 -122.094091 299 10000ft 235kts
06-Jan-18 11:56 47.364307 -122.174345 299 9997ft 225kts
06-Jan-18 11:57 47.402216 -122.241801 348 10006ft 229kts
06-Jan-18 11:58 47.464825 -122.241617 358 8976ft 224kts
06-Jan-18 11:59 47.525578 -122.239908 358 7762ft 219kts
06-Jan-18 12:00 47.586199 -122.239208 358 6423ft 219kts
06-Jan-18 12:01 47.646339 -122.239721 356 5120ft 217kts
06-Jan-18 12:02 47.676466 -122.304574 286 3843ft 200kts
06-Jan-18 12:03 47.695340 -122.375528 320 3000ft 176kts
06-Jan-18 12:04 47.734839 -122.416764 322 2998ft 177kts
06-Jan-18 12:05 47.720343 -122.467631 171 3000ft 160kts
06-Jan-18 12:06 47.683580 -122.433420 150 2534ft 161kts
06-Jan-18 12:07 47.645737 -122.400734 150 2195ft 148kts
06-Jan-18 12:08 47.614854 -122.374492 150 1703ft 104kts
06-Jan-18 12:09 47.591294 -122.354410 150 1175ft 97kts
06-Jan-18 12:10 47.568418 -122.335373 150 673ft 90kts
06-Jan-18 12:11 47.547835 -122.317533 150 224ft 84kts
06-Jan-18 12:12 47.531766 -122.303936 150 24ft 32kts
06-Jan-18 12:13 47.530510 -122.302274 91 24ft 0kts

Navigation Log

Ident Type
Flight plan parsing failed, navigation log unavailable